createdAt,value
2019-05-17T00:00:16.787Z,99.90
2019-05-17T00:05:22.008Z,99.90
2019-05-17T00:10:27.172Z,99.90
2019-05-17T00:15:32.335Z,99.90
2019-05-17T00:20:37.705Z,99.90
2019-05-17T00:25:42.824Z,99.90
2019-05-17T00:30:48.016Z,99.90
2019-05-17T00:35:53.202Z,99.90
2019-05-17T00:40:58.266Z,99.90
2019-05-17T00:46:03.383Z,99.90
2019-05-17T00:51:10.527Z,99.90
2019-05-17T00:56:17.142Z,99.90
2019-05-17T01:01:22.115Z,99.90
2019-05-17T01:06:27.557Z,99.90
2019-05-17T01:11:32.758Z,99.90
2019-05-17T01:16:37.787Z,99.90
2019-05-17T01:21:42.856Z,99.90
2019-05-17T01:26:48.063Z,99.90
2019-05-17T01:31:53.127Z,99.90
2019-05-17T01:36:58.088Z,99.90
2019-05-17T01:42:03.318Z,99.90
2019-05-17T01:47:08.342Z,99.90
2019-05-17T01:52:16.634Z,99.90
2019-05-17T01:57:21.243Z,99.90
2019-05-17T02:02:31.041Z,99.90
2019-05-17T02:07:37.319Z,99.90
2019-05-17T02:12:43.569Z,99.90
2019-05-17T02:17:48.754Z,99.90
2019-05-17T02:22:53.804Z,99.90
2019-05-17T02:27:58.858Z,99.90
2019-05-17T02:33:04.519Z,99.90
2019-05-17T02:38:13.242Z,99.90
2019-05-17T02:43:17.573Z,99.90
2019-05-17T02:48:23.440Z,99.90
2019-05-17T02:53:28.686Z,99.90
2019-05-17T02:58:33.666Z,99.90
2019-05-17T03:03:52.916Z,99.90
2019-05-17T03:08:57.383Z,99.90
2019-05-17T03:14:04.005Z,99.90
2019-05-17T03:19:12.788Z,99.90
2019-05-17T03:24:15.889Z,99.90
2019-05-17T03:29:22.745Z,99.90
2019-05-17T03:34:28.159Z,99.90
2019-05-17T03:39:33.485Z,99.90
2019-05-17T03:44:38.689Z,99.90
2019-05-17T03:49:43.904Z,99.90
2019-05-17T03:54:48.884Z,99.90
2019-05-17T03:59:54.016Z,99.90
2019-05-17T04:04:59.075Z,99.90
2019-05-17T04:10:06.944Z,99.90
2019-05-17T04:15:13.319Z,99.90
2019-05-17T04:20:18.784Z,99.90
2019-05-17T04:25:23.844Z,99.90
2019-05-17T04:30:28.908Z,99.90
2019-05-17T04:35:33.975Z,99.90
2019-05-17T04:40:38.951Z,99.90
2019-05-17T04:45:43.990Z,99.90
2019-05-17T04:50:49.056Z,99.90
2019-05-17T04:55:54.298Z,99.90
2019-05-17T05:00:59.417Z,99.90
2019-05-17T05:06:04.648Z,99.90
2019-05-17T05:11:12.464Z,99.90
2019-05-17T05:16:16.299Z,99.90
2019-05-17T05:21:23.099Z,99.90
2019-05-17T05:26:28.231Z,99.90
2019-05-17T05:31:33.377Z,99.90
2019-05-17T05:36:41.982Z,99.90
2019-05-17T05:41:47.151Z,99.90
2019-05-17T05:46:52.213Z,99.90
2019-05-17T05:51:57.199Z,99.60
2019-05-17T05:57:02.507Z,99.20
2019-05-17T06:02:09.333Z,99.10
2019-05-17T06:07:14.360Z,98.20
2019-05-17T06:12:24.828Z,96.60
2019-05-17T06:17:26.146Z,96.40
2019-05-17T06:22:31.847Z,96.00
2019-05-17T06:27:36.903Z,95.80
2019-05-17T06:32:43.343Z,95.50
2019-05-17T06:37:48.624Z,94.50
2019-05-17T06:42:53.607Z,93.00
2019-05-17T06:47:58.660Z,92.40
2019-05-17T06:53:03.683Z,92.80
2019-05-17T06:58:08.799Z,91.60
2019-05-17T07:03:13.929Z,90.20
2019-05-17T07:08:20.171Z,89.50
2019-05-17T07:13:25.243Z,86.80
2019-05-17T07:18:30.311Z,85.70
2019-05-17T07:23:35.304Z,88.10
2019-05-17T07:28:40.561Z,89.40
2019-05-17T07:33:45.615Z,89.30
2019-05-17T07:38:50.679Z,88.00
2019-05-17T07:43:55.659Z,86.80
2019-05-17T07:49:00.611Z,85.50
2019-05-17T07:54:05.918Z,84.40
2019-05-17T07:59:11.011Z,86.90
2019-05-17T08:04:17.179Z,82.20
2019-05-17T08:09:22.376Z,84.60
2019-05-17T08:14:30.379Z,86.00
2019-05-17T08:19:34.191Z,79.50
2019-05-17T08:24:39.937Z,80.90
2019-05-17T08:29:45.214Z,86.60
2019-05-17T08:34:51.884Z,83.50
2019-05-17T08:39:59.880Z,81.00
2019-05-17T08:45:05.819Z,82.60
2019-05-17T08:50:11.650Z,83.10
2019-05-17T08:55:17.013Z,79.40
2019-05-17T09:00:22.275Z,79.40
2019-05-17T09:05:30.070Z,80.80
2019-05-17T09:10:34.252Z,80.10
2019-05-17T09:15:40.239Z,77.00
2019-05-17T09:20:49.706Z,72.30
2019-05-17T09:25:55.263Z,75.30
2019-05-17T09:31:02.460Z,76.50
2019-05-17T09:36:10.112Z,70.00
2019-05-17T09:41:14.990Z,70.80
2019-05-17T09:46:20.154Z,70.70
2019-05-17T09:51:26.560Z,66.60
2019-05-17T09:56:31.500Z,69.50
2019-05-17T10:01:36.595Z,63.40
2019-05-17T10:06:41.699Z,68.90
2019-05-17T10:11:46.775Z,67.90
2019-05-17T10:16:51.882Z,63.10
2019-05-17T10:21:56.955Z,62.60
2019-05-17T10:27:03.924Z,62.90
2019-05-17T10:32:10.485Z,72.80
2019-05-17T10:37:16.757Z,67.20
2019-05-17T10:42:21.816Z,69.00
2019-05-17T10:47:26.935Z,73.30
2019-05-17T10:52:31.996Z,73.80
2019-05-17T10:57:37.057Z,69.00
2019-05-17T11:02:42.079Z,67.20
2019-05-17T11:07:47.105Z,65.50
2019-05-17T11:12:53.268Z,67.60
2019-05-17T11:17:58.335Z,59.20
2019-05-17T11:23:03.484Z,59.50
2019-05-17T11:28:08.505Z,59.80
2019-05-17T11:33:13.607Z,63.40
2019-05-17T11:38:18.728Z,59.10
2019-05-17T11:43:23.685Z,58.80
2019-05-17T11:48:28.755Z,58.80
2019-05-17T11:53:33.795Z,60.70
2019-05-17T11:58:38.790Z,61.40
2019-05-17T12:03:43.843Z,60.20
2019-05-17T12:08:48.845Z,62.90
2019-05-17T12:13:54.756Z,58.40
2019-05-17T12:18:59.947Z,59.30
2019-05-17T12:24:05.094Z,58.20
2019-05-17T12:29:10.211Z,59.60
2019-05-17T12:34:15.258Z,59.70
2019-05-17T12:39:20.400Z,60.10
2019-05-17T12:44:25.474Z,64.50
2019-05-17T12:49:30.757Z,62.20
2019-05-17T12:54:35.965Z,57.00
2019-05-17T12:59:41.092Z,59.20
2019-05-17T13:04:46.291Z,58.10
2019-05-17T13:09:51.359Z,58.60
2019-05-17T13:20:20.856Z,62.40
2019-05-17T13:25:26.032Z,61.40
2019-05-17T13:30:31.345Z,64.70
2019-05-17T13:35:36.383Z,63.20
2019-05-17T13:40:41.501Z,67.00
2019-05-17T13:45:46.733Z,68.90
2019-05-17T13:50:52.446Z,67.50
2019-05-17T13:55:59.105Z,68.00
2019-05-17T14:01:05.775Z,72.90
2019-05-17T14:06:10.886Z,70.80
2019-05-17T14:11:15.980Z,72.60
2019-05-17T14:16:21.529Z,73.60
2019-05-17T14:21:26.521Z,75.60
2019-05-17T14:26:31.954Z,71.00
2019-05-17T14:31:37.010Z,73.20
2019-05-17T14:36:42.080Z,70.50
2019-05-17T14:41:47.135Z,67.80
2019-05-17T14:46:52.128Z,69.10
2019-05-17T14:51:57.259Z,62.70
2019-05-17T14:57:02.281Z,63.70
2019-05-17T15:02:07.379Z,56.40
2019-05-17T15:07:12.439Z,53.80
2019-05-17T15:12:27.854Z,53.00
2019-05-17T15:17:24.004Z,51.60
2019-05-17T15:22:29.047Z,47.60
2019-05-17T15:27:34.135Z,45.40
2019-05-17T15:32:39.201Z,43.90
2019-05-17T15:37:44.223Z,43.10
2019-05-17T15:42:49.347Z,47.70
2019-05-17T15:47:54.535Z,49.60
2019-05-17T15:52:59.639Z,53.40
2019-05-17T15:58:04.792Z,54.40
2019-05-17T16:03:11.180Z,50.70
2019-05-17T16:08:16.292Z,48.30
2019-05-17T16:13:21.243Z,44.60
2019-05-17T16:18:26.366Z,41.80
2019-05-17T16:23:32.385Z,40.50
2019-05-17T16:28:37.449Z,36.40
2019-05-17T16:33:42.422Z,37.90
2019-05-17T16:38:47.554Z,33.00
2019-05-17T16:43:52.507Z,33.60
2019-05-17T16:48:57.567Z,33.00
2019-05-17T16:54:04.403Z,32.80
2019-05-17T16:59:09.540Z,34.10
2019-05-17T17:04:15.092Z,32.60
2019-05-17T17:09:20.356Z,32.30
2019-05-17T17:14:25.390Z,32.70
2019-05-17T17:19:31.583Z,32.90
2019-05-17T17:24:36.665Z,33.20
2019-05-17T17:29:41.703Z,36.10
2019-05-17T17:34:46.659Z,36.10
2019-05-17T17:39:53.400Z,38.40
2019-05-17T17:44:58.587Z,41.70
2019-05-17T17:50:05.523Z,43.40
2019-05-17T17:55:10.733Z,47.40
2019-05-17T18:00:16.242Z,53.90
2019-05-17T18:05:21.365Z,58.90
2019-05-17T18:10:29.475Z,64.30
2019-05-17T18:15:44.438Z,69.10
2019-05-17T18:20:49.540Z,72.20
2019-05-17T18:25:54.540Z,76.20
2019-05-17T18:30:59.796Z,79.60
2019-05-17T18:36:04.995Z,80.90
2019-05-17T18:41:11.814Z,82.40
2019-05-17T18:46:16.996Z,84.50
2019-05-17T18:51:23.031Z,87.00
2019-05-17T18:56:28.094Z,88.70
2019-05-17T19:01:34.787Z,89.40
2019-05-17T19:06:39.814Z,90.00
2019-05-17T19:11:44.935Z,89.60
2019-05-17T19:16:51.055Z,90.20
2019-05-17T19:21:56.081Z,90.50
2019-05-17T19:27:01.213Z,88.10
2019-05-17T19:32:06.294Z,85.60
2019-05-17T19:37:11.495Z,87.00
2019-05-17T19:42:16.553Z,86.60
2019-05-17T19:47:21.544Z,87.50
2019-05-17T19:52:26.603Z,86.60
2019-05-17T19:57:31.672Z,85.80
2019-05-17T20:02:36.845Z,86.10
2019-05-17T20:07:42.902Z,86.40
2019-05-17T20:12:48.048Z,86.10
2019-05-17T20:17:53.103Z,86.10
2019-05-17T20:22:58.251Z,88.20
2019-05-17T20:28:03.476Z,89.00
2019-05-17T20:33:08.527Z,87.40
2019-05-17T20:38:13.724Z,86.30
2019-05-17T20:43:18.759Z,86.30
2019-05-17T20:48:25.961Z,84.90
2019-05-17T20:53:30.431Z,87.00
2019-05-17T20:58:35.503Z,89.40
2019-05-17T21:03:40.567Z,90.20
2019-05-17T21:08:46.696Z,87.00
2019-05-17T21:13:51.897Z,87.20
2019-05-17T21:18:56.922Z,89.00
2019-05-17T21:24:01.933Z,87.30
2019-05-17T21:29:06.980Z,89.50
2019-05-17T21:34:12.019Z,88.80
2019-05-17T21:39:17.099Z,89.70
2019-05-17T21:44:22.079Z,89.70
2019-05-17T21:49:27.151Z,90.10
2019-05-17T21:54:32.123Z,87.90
2019-05-17T21:59:37.262Z,87.00
2019-05-17T22:04:42.400Z,90.50
2019-05-17T22:09:47.443Z,87.30
2019-05-17T22:14:52.494Z,90.30
2019-05-17T22:19:57.567Z,89.60
2019-05-17T22:25:02.701Z,88.90
2019-05-17T22:30:08.111Z,89.20
2019-05-17T22:35:14.207Z,88.30
2019-05-17T22:40:19.335Z,88.50
2019-05-17T22:45:27.239Z,89.50
2019-05-17T22:50:32.303Z,88.70
2019-05-17T22:55:37.439Z,88.80
2019-05-17T23:00:42.576Z,88.60
2019-05-17T23:05:47.534Z,88.80
2019-05-17T23:10:52.619Z,91.40
2019-05-17T23:16:01.393Z,89.80
2019-05-17T23:21:09.570Z,89.90
2019-05-17T23:26:17.689Z,91.80
2019-05-17T23:31:25.424Z,90.40
2019-05-17T23:36:30.447Z,89.50
2019-05-17T23:41:36.589Z,90.90
2019-05-17T23:46:41.881Z,89.10
2019-05-17T23:51:46.953Z,88.50
2019-05-17T23:56:52.003Z,88.10
